createdAt,value
2023-02-01T00:00:52.604Z,99.99
2023-02-01T00:01:52.597Z,99.99
2023-02-01T00:02:52.648Z,99.99
2023-02-01T00:03:52.646Z,99.99
2023-02-01T00:04:52.552Z,99.99
2023-02-01T00:05:52.514Z,99.99
2023-02-01T00:06:52.540Z,99.99
2023-02-01T00:07:52.522Z,99.99
2023-02-01T00:08:52.473Z,99.99
2023-02-01T00:09:52.513Z,99.99
2023-02-01T00:10:52.499Z,99.93
2023-02-01T00:11:52.471Z,99.99
2023-02-01T00:12:52.470Z,99.99
2023-02-01T00:13:52.426Z,99.99
2023-02-01T00:14:52.430Z,99.99
2023-02-01T00:15:52.449Z,99.99
2023-02-01T00:16:52.389Z,99.99
2023-02-01T00:17:52.385Z,99.99
2023-02-01T00:18:52.341Z,99.99
2023-02-01T00:19:52.373Z,99.99
2023-02-01T00:20:52.321Z,99.99
2023-02-01T00:21:52.338Z,99.99
2023-02-01T00:22:52.318Z,99.99
2023-02-01T00:23:52.286Z,99.99
2023-02-01T00:24:52.267Z,99.99
2023-02-01T00:25:52.271Z,99.99
2023-02-01T00:26:52.320Z,99.99
2023-02-01T00:27:52.266Z,99.99
2023-02-01T00:28:52.267Z,99.99
2023-02-01T00:29:52.229Z,99.99
2023-02-01T00:30:52.288Z,99.99
2023-02-01T00:31:52.582Z,99.99
2023-02-01T00:32:52.168Z,99.99
2023-02-01T00:33:52.199Z,99.99
2023-02-01T00:34:55.966Z,99.99
2023-02-01T00:35:52.151Z,99.99
2023-02-01T00:36:52.184Z,99.99
2023-02-01T00:37:52.178Z,99.99
2023-02-01T00:38:52.122Z,99.99
2023-02-01T00:39:52.114Z,99.99
2023-02-01T00:40:52.064Z,99.99
2023-02-01T00:41:52.078Z,99.99
2023-02-01T00:42:52.073Z,99.99
2023-02-01T00:43:52.080Z,99.99
2023-02-01T00:44:52.039Z,99.99
2023-02-01T00:45:52.039Z,99.99
2023-02-01T00:46:52.105Z,99.98
2023-02-01T00:47:52.031Z,99.87
2023-02-01T00:48:52.034Z,99.77
2023-02-01T00:49:51.984Z,99.66
2023-02-01T00:50:51.946Z,99.46
2023-02-01T00:51:51.936Z,99.25
2023-02-01T00:52:51.977Z,99.15
2023-02-01T00:53:51.920Z,98.74
2023-02-01T00:54:51.920Z,98.43
2023-02-01T00:55:51.882Z,98.11
2023-02-01T00:56:51.905Z,97.60
2023-02-01T00:57:51.865Z,97.29
2023-02-01T00:58:51.847Z,97.19
2023-02-01T00:59:51.835Z,96.98
2023-02-01T01:00:51.854Z,96.77
2023-02-01T01:01:51.855Z,96.36
2023-02-01T01:02:51.809Z,96.26
2023-02-01T01:03:51.939Z,96.15
2023-02-01T01:04:51.785Z,95.74
2023-02-01T01:05:51.752Z,95.64
2023-02-01T01:06:51.757Z,95.64
2023-02-01T01:07:51.753Z,95.32
2023-02-01T01:08:51.721Z,95.17
2023-02-01T01:09:51.714Z,94.96
2023-02-01T01:10:51.708Z,94.85
2023-02-01T01:11:51.705Z,94.85
2023-02-01T01:12:51.671Z,94.75
2023-02-01T01:13:51.708Z,94.85
2023-02-01T01:14:51.664Z,94.75
2023-02-01T01:15:51.724Z,94.65
2023-02-01T01:16:51.641Z,94.65
2023-02-01T01:17:51.609Z,94.65
2023-02-01T01:18:51.611Z,94.65
2023-02-01T01:19:51.616Z,94.34
2023-02-01T01:20:51.565Z,94.34
2023-02-01T01:21:51.552Z,94.23
2023-02-01T01:22:51.560Z,93.93
2023-02-01T01:23:51.554Z,93.72
2023-02-01T01:24:51.519Z,93.72
2023-02-01T01:25:51.537Z,93.51
2023-02-01T01:26:51.580Z,93.41
2023-02-01T01:27:51.477Z,93.41
2023-02-01T01:28:51.514Z,93.10
2023-02-01T01:29:51.494Z,93.10
2023-02-01T01:30:51.475Z,93.20
2023-02-01T01:31:51.534Z,93.10
2023-02-01T01:32:51.425Z,93.20
2023-02-01T01:33:51.440Z,93.20
2023-02-01T01:34:51.428Z,93.20
2023-02-01T01:35:51.414Z,93.10
2023-02-01T01:36:51.379Z,93.10
2023-02-01T01:37:51.373Z,92.89
2023-02-01T01:38:51.362Z,92.79
2023-02-01T01:39:51.352Z,92.79
2023-02-01T01:40:51.303Z,92.48
2023-02-01T01:41:51.361Z,92.68
2023-02-01T01:42:51.285Z,92.79
2023-02-01T01:43:51.278Z,92.79
2023-02-01T01:44:51.282Z,92.89
2023-02-01T01:45:51.271Z,93.14
2023-02-01T01:46:51.288Z,93.14
2023-02-01T01:47:51.297Z,92.93
2023-02-01T01:48:51.193Z,92.52
2023-02-01T01:49:51.193Z,92.63
2023-02-01T01:50:51.206Z,92.72
2023-02-01T01:51:51.203Z,92.93
2023-02-01T01:52:51.144Z,93.04
2023-02-01T01:53:51.179Z,93.24
2023-02-01T01:54:51.116Z,93.24
2023-02-01T01:55:51.155Z,93.04
2023-02-01T01:56:51.126Z,93.14
2023-02-01T01:57:51.131Z,93.14
2023-02-01T01:58:51.112Z,93.35
2023-02-01T01:59:51.115Z,93.55
2023-02-01T02:00:51.099Z,93.66
2023-02-01T02:01:51.086Z,93.66
2023-02-01T02:02:51.064Z,93.66
2023-02-01T02:03:51.000Z,93.66
2023-02-01T02:04:51.003Z,93.55
2023-02-01T02:05:51.026Z,93.45
2023-02-01T02:06:50.993Z,93.55
2023-02-01T02:07:50.989Z,93.66
2023-02-01T02:08:50.959Z,93.66
2023-02-01T02:09:59.928Z,93.76
2023-02-01T02:10:51.952Z,93.66
2023-02-01T02:11:50.928Z,93.55
2023-02-01T02:12:50.908Z,93.66
2023-02-01T02:13:50.903Z,93.76
2023-02-01T02:14:50.869Z,93.76
2023-02-01T02:15:50.849Z,93.76
2023-02-01T02:16:50.874Z,93.76
2023-02-01T02:17:50.847Z,93.97
2023-02-01T02:18:50.857Z,94.07
2023-02-01T02:19:50.800Z,94.18
2023-02-01T02:20:50.837Z,94.18
2023-02-01T02:21:50.803Z,94.07
2023-02-01T02:22:50.785Z,93.76
2023-02-01T02:23:50.795Z,93.66
2023-02-01T02:24:50.795Z,93.45
2023-02-01T02:25:50.728Z,93.55
2023-02-01T02:26:50.761Z,93.45
2023-02-01T02:27:50.698Z,93.35
2023-02-01T02:28:50.767Z,93.24
2023-02-01T02:29:50.726Z,93.45
2023-02-01T02:30:50.706Z,93.66
2023-02-01T02:31:50.692Z,93.76
2023-02-01T02:32:50.675Z,93.87
2023-02-01T02:33:50.673Z,93.87
2023-02-01T02:34:50.623Z,93.87
2023-02-01T02:35:50.594Z,93.87
2023-02-01T02:36:50.631Z,93.76
2023-02-01T02:37:50.572Z,93.76
2023-02-01T02:38:50.579Z,93.87
2023-02-01T02:39:50.567Z,93.66
2023-02-01T02:40:50.571Z,93.66
2023-02-01T02:41:50.578Z,93.45
2023-02-01T02:42:50.527Z,93.55
2023-02-01T02:43:50.538Z,93.35
2023-02-01T02:44:50.531Z,93.24
2023-02-01T02:45:50.509Z,93.14
2023-02-01T02:46:50.516Z,93.24
2023-02-01T02:47:50.478Z,93.35
2023-02-01T02:48:50.449Z,93.24
2023-02-01T02:49:50.448Z,93.24
2023-02-01T02:50:50.412Z,93.35
2023-02-01T02:51:50.447Z,93.35
2023-02-01T02:52:50.402Z,93.24
2023-02-01T02:53:50.372Z,93.24
2023-02-01T02:54:50.391Z,93.14
2023-02-01T02:55:50.367Z,93.04
2023-02-01T02:56:50.359Z,92.89
2023-02-01T02:57:50.324Z,92.89
2023-02-01T02:58:50.365Z,92.99
2023-02-01T02:59:50.305Z,93.04
2023-02-01T03:00:50.355Z,92.99
2023-02-01T03:01:50.331Z,92.99
2023-02-01T03:02:50.376Z,93.10
2023-02-01T03:03:50.264Z,93.20
2023-02-01T03:04:50.246Z,93.30
2023-02-01T03:05:50.245Z,93.41
2023-02-01T03:06:50.207Z,93.41
2023-02-01T03:07:50.244Z,93.51
2023-02-01T03:08:50.238Z,93.51
2023-02-01T03:09:50.212Z,93.62
2023-02-01T03:10:50.174Z,93.72
2023-02-01T03:11:50.150Z,93.82
2023-02-01T03:12:50.157Z,93.82
2023-02-01T03:13:50.129Z,93.93
2023-02-01T03:14:50.149Z,94.03
2023-02-01T03:15:50.112Z,94.13
2023-02-01T03:16:50.179Z,94.23
2023-02-01T03:17:50.117Z,94.34
2023-02-01T03:18:50.073Z,94.44
2023-02-01T03:19:50.062Z,94.54
2023-02-01T03:20:50.064Z,94.75
2023-02-01T03:21:50.046Z,94.96
2023-02-01T03:22:50.025Z,95.21
2023-02-01T03:23:49.982Z,95.21
2023-02-01T03:24:50.012Z,95.27
2023-02-01T03:25:49.960Z,95.27
2023-02-01T03:26:50.028Z,95.37
2023-02-01T03:27:49.988Z,95.37
2023-02-01T03:28:49.960Z,95.37
2023-02-01T03:29:49.912Z,95.27
2023-02-01T03:30:49.959Z,95.27
2023-02-01T03:31:50.041Z,95.27
2023-02-01T03:32:49.910Z,95.27
2023-02-01T03:33:49.898Z,95.27
2023-02-01T03:34:49.884Z,95.27
2023-02-01T03:35:49.866Z,95.37
2023-02-01T03:36:49.871Z,95.37
2023-02-01T03:37:49.805Z,95.37
2023-02-01T03:38:49.848Z,95.37
2023-02-01T03:39:49.783Z,95.27
2023-02-01T03:40:49.809Z,95.27
2023-02-01T03:41:49.791Z,95.42
2023-02-01T03:42:49.787Z,95.31
2023-02-01T03:43:49.831Z,95.31
2023-02-01T03:44:49.740Z,95.31
2023-02-01T03:45:49.779Z,95.31
2023-02-01T03:46:49.739Z,95.31
2023-02-01T03:47:49.676Z,95.31
2023-02-01T03:48:49.673Z,95.31
2023-02-01T03:49:49.670Z,95.21
2023-02-01T03:50:49.659Z,95.10
2023-02-01T03:51:49.717Z,95.10
2023-02-01T03:52:49.628Z,95.00
2023-02-01T03:53:49.625Z,95.00
2023-02-01T03:54:49.626Z,94.90
2023-02-01T03:55:49.596Z,94.65
2023-02-01T03:56:49.636Z,94.65
2023-02-01T03:57:49.627Z,94.65
2023-02-01T03:58:49.573Z,94.54
2023-02-01T03:59:49.550Z,94.44
2023-02-01T04:00:49.537Z,94.34
2023-02-01T04:01:49.500Z,94.23
2023-02-01T04:02:49.514Z,94.03
2023-02-01T04:03:49.512Z,93.93
2023-02-01T04:04:49.496Z,93.93
2023-02-01T04:05:49.436Z,93.82
2023-02-01T04:06:49.470Z,93.82
2023-02-01T04:07:49.463Z,93.41
2023-02-01T04:08:49.457Z,93.30
2023-02-01T04:09:49.417Z,92.99
2023-02-01T04:10:49.388Z,92.89
2023-02-01T04:11:49.392Z,92.79
2023-02-01T04:12:49.398Z,92.79
2023-02-01T04:13:49.394Z,92.99
2023-02-01T04:14:49.337Z,92.89
2023-02-01T04:15:49.335Z,92.79
2023-02-01T04:16:49.486Z,92.89
2023-02-01T04:17:49.326Z,92.79
2023-02-01T04:18:49.320Z,92.99
2023-02-01T04:19:49.291Z,92.89
2023-02-01T04:20:49.308Z,92.99
2023-02-01T04:21:49.243Z,93.10
2023-02-01T04:22:49.273Z,93.20
2023-02-01T04:23:49.230Z,92.89
2023-02-01T04:24:49.203Z,92.58
2023-02-01T04:25:49.262Z,92.38
2023-02-01T04:26:49.291Z,92.38
2023-02-01T04:27:59.505Z,92.17
2023-02-01T04:28:49.159Z,92.27
2023-02-01T04:29:49.167Z,92.17
2023-02-01T04:30:49.219Z,91.96
2023-02-01T04:31:49.288Z,91.96
2023-02-01T04:32:49.117Z,92.07
2023-02-01T04:33:49.082Z,91.86
2023-02-01T04:34:49.111Z,91.86
2023-02-01T04:35:49.104Z,91.65
2023-02-01T04:36:49.090Z,91.55
2023-02-01T04:37:49.028Z,91.55
2023-02-01T04:38:49.066Z,91.65
2023-02-01T04:39:49.035Z,91.55
2023-02-01T04:40:49.030Z,91.65
2023-02-01T04:41:49.014Z,91.75
2023-02-01T04:42:48.994Z,91.75
2023-02-01T04:43:48.981Z,91.69
2023-02-01T04:44:48.986Z,91.59
2023-02-01T04:45:48.980Z,91.59
2023-02-01T04:46:48.967Z,91.28
2023-02-01T04:47:48.905Z,90.87
2023-02-01T04:48:48.904Z,91.07
2023-02-01T04:49:48.893Z,91.17
2023-02-01T04:50:48.921Z,91.17
2023-02-01T04:51:48.872Z,90.97
2023-02-01T04:52:48.852Z,91.07
2023-02-01T04:53:48.832Z,91.07
2023-02-01T04:54:48.861Z,91.17
2023-02-01T04:55:48.816Z,90.97
2023-02-01T04:56:49.212Z,91.07
2023-02-01T04:57:48.810Z,91.07
2023-02-01T04:58:48.784Z,91.07
2023-02-01T04:59:48.762Z,91.07
2023-02-01T05:00:48.798Z,91.07
2023-02-01T05:01:49.091Z,90.97
2023-02-01T05:02:48.743Z,91.07
2023-02-01T05:03:48.713Z,91.07
2023-02-01T05:04:48.817Z,91.17
2023-02-01T05:05:48.740Z,91.28
2023-02-01T05:06:48.724Z,91.38
2023-02-01T05:07:48.673Z,91.49
2023-02-01T05:08:48.648Z,91.49
2023-02-01T05:09:48.656Z,91.28
2023-02-01T05:10:48.679Z,91.49
2023-02-01T05:11:48.626Z,91.38
2023-02-01T05:12:48.616Z,91.38
2023-02-01T05:13:48.621Z,91.38
2023-02-01T05:14:48.571Z,91.53
2023-02-01T05:15:48.563Z,91.63
2023-02-01T05:16:48.562Z,91.63
2023-02-01T05:17:48.543Z,91.63
2023-02-01T05:18:48.564Z,91.74
2023-02-01T05:19:48.509Z,91.74
2023-02-01T05:20:48.524Z,91.74
2023-02-01T05:21:48.479Z,91.84
2023-02-01T05:22:48.506Z,91.74
2023-02-01T05:23:48.445Z,91.74
2023-02-01T05:24:48.449Z,91.74
2023-02-01T05:25:48.421Z,91.84
2023-02-01T05:26:48.510Z,91.84
2023-02-01T05:27:48.423Z,91.94
2023-02-01T05:28:48.400Z,92.15
2023-02-01T05:29:48.368Z,91.84
2023-02-01T05:30:48.476Z,91.84
2023-02-01T05:31:48.547Z,91.84
2023-02-01T05:32:48.390Z,91.94
2023-02-01T05:33:48.355Z,91.99
2023-02-01T05:34:48.371Z,91.99
2023-02-01T05:35:48.305Z,91.99
2023-02-01T05:36:48.323Z,91.99
2023-02-01T05:37:48.290Z,91.99
2023-02-01T05:38:48.320Z,91.88
2023-02-01T05:39:48.261Z,91.78
2023-02-01T05:40:48.272Z,91.67
2023-02-01T05:41:48.233Z,91.67
2023-02-01T05:42:48.227Z,91.67
2023-02-01T05:43:48.241Z,91.67
2023-02-01T05:44:48.241Z,91.57
2023-02-01T05:45:48.160Z,91.36
2023-02-01T05:46:50.133Z,91.36
2023-02-01T05:47:48.180Z,91.47
2023-02-01T05:48:48.143Z,91.36
2023-02-01T05:49:48.126Z,91.26
2023-02-01T05:50:48.168Z,91.26
2023-02-01T05:51:48.093Z,91.26
2023-02-01T05:52:48.109Z,91.36
2023-02-01T05:53:48.109Z,91.26
2023-02-01T05:54:48.153Z,91.26
2023-02-01T05:55:48.065Z,91.16
2023-02-01T05:56:48.063Z,91.26
2023-02-01T05:57:48.010Z,91.26
2023-02-01T05:58:48.044Z,91.05
2023-02-01T05:59:48.016Z,91.16
2023-02-01T06:00:48.074Z,91.16
2023-02-01T06:01:47.958Z,91.16
2023-02-01T06:02:48.064Z,91.05
2023-02-01T06:03:47.993Z,90.95
2023-02-01T06:04:47.948Z,91.16
2023-02-01T06:05:47.947Z,91.05
2023-02-01T06:06:47.966Z,91.16
2023-02-01T06:07:47.911Z,91.26
2023-02-01T06:08:47.928Z,91.36
2023-02-01T06:09:47.900Z,91.47
2023-02-01T06:10:47.879Z,91.47
2023-02-01T06:11:47.857Z,91.57
2023-02-01T06:12:47.832Z,91.57
2023-02-01T06:13:47.833Z,91.57
2023-02-01T06:14:47.840Z,91.57
2023-02-01T06:15:47.942Z,91.57
2023-02-01T06:16:47.785Z,91.47
2023-02-01T06:17:47.791Z,91.47
2023-02-01T06:18:47.784Z,91.36
2023-02-01T06:19:47.745Z,91.26
2023-02-01T06:20:47.726Z,91.36
2023-02-01T06:21:47.783Z,91.36
2023-02-01T06:22:47.735Z,91.47
2023-02-01T06:23:47.714Z,91.47
2023-02-01T06:24:47.684Z,91.36
2023-02-01T06:25:47.685Z,91.36
2023-02-01T06:26:47.732Z,91.47
2023-02-01T06:27:47.690Z,91.36
2023-02-01T06:28:47.629Z,91.36
2023-02-01T06:29:47.648Z,91.36
2023-02-01T06:30:47.623Z,91.51
2023-02-01T06:31:47.639Z,91.57
2023-02-01T06:32:47.591Z,91.72
2023-02-01T06:33:47.610Z,91.72
2023-02-01T06:34:47.570Z,91.88
2023-02-01T06:35:47.570Z,91.88
2023-02-01T06:36:47.564Z,91.99
2023-02-01T06:37:47.522Z,91.99
2023-02-01T06:38:47.494Z,91.99
2023-02-01T06:39:47.565Z,91.99
2023-02-01T06:40:47.515Z,91.99
2023-02-01T06:41:47.489Z,91.78
2023-02-01T06:42:47.439Z,91.67
2023-02-01T06:43:47.479Z,91.47
2023-02-01T06:44:47.445Z,91.36
2023-02-01T06:45:47.460Z,91.57
2023-02-01T06:46:47.490Z,91.57
2023-02-01T06:47:47.393Z,91.57
2023-02-01T06:48:47.383Z,91.78
2023-02-01T06:49:47.373Z,91.78
2023-02-01T06:50:47.376Z,91.78
2023-02-01T06:51:47.371Z,91.67
2023-02-01T06:52:47.339Z,91.67
2023-02-01T06:53:47.356Z,91.67
2023-02-01T06:54:47.320Z,91.67
2023-02-01T06:55:47.327Z,91.67
2023-02-01T06:56:47.261Z,91.57
2023-02-01T06:57:47.316Z,91.47
2023-02-01T06:58:47.264Z,91.47
2023-02-01T06:59:47.247Z,91.47
2023-02-01T07:00:47.303Z,91.57
2023-02-01T07:01:47.253Z,91.42
2023-02-01T07:02:47.233Z,91.47
2023-02-01T07:03:47.198Z,91.47
2023-02-01T07:04:47.171Z,91.42
2023-02-01T07:05:47.192Z,91.47
2023-02-01T07:06:47.149Z,91.32
2023-02-01T07:07:47.201Z,91.22
2023-02-01T07:08:47.139Z,91.32
2023-02-01T07:09:47.159Z,91.22
2023-02-01T07:10:47.138Z,91.22
2023-02-01T07:11:47.108Z,91.11
2023-02-01T07:12:47.077Z,91.01
2023-02-01T07:13:47.172Z,91.11
2023-02-01T07:14:47.051Z,90.91
2023-02-01T07:15:47.046Z,90.91
2023-02-01T07:16:47.042Z,90.91
2023-02-01T07:17:47.033Z,90.80
2023-02-01T07:18:47.009Z,90.80
2023-02-01T07:19:46.984Z,90.80
2023-02-01T07:20:47.021Z,90.80
2023-02-01T07:21:46.987Z,90.80
2023-02-01T07:22:46.923Z,90.91
2023-02-01T07:23:46.943Z,91.01
2023-02-01T07:24:46.916Z,91.11
2023-02-01T07:25:46.906Z,91.11
2023-02-01T07:26:46.952Z,91.11
2023-02-01T07:27:46.882Z,91.22
2023-02-01T07:28:46.874Z,91.22
2023-02-01T07:29:46.865Z,91.32
2023-02-01T07:30:46.865Z,91.11
2023-02-01T07:31:46.870Z,91.11
2023-02-01T07:32:46.940Z,91.22
2023-02-01T07:33:46.805Z,91.22
2023-02-01T07:34:46.785Z,91.11
2023-02-01T07:35:46.776Z,90.91
2023-02-01T07:36:46.747Z,91.01
2023-02-01T07:37:46.780Z,91.01
2023-02-01T07:38:46.757Z,91.22
2023-02-01T07:39:46.767Z,91.11
2023-02-01T07:40:46.727Z,91.11
2023-02-01T07:41:46.700Z,91.11
2023-02-01T07:42:46.707Z,91.22
2023-02-01T07:43:46.688Z,91.11
2023-02-01T07:44:46.690Z,91.22
2023-02-01T07:45:46.695Z,91.11
2023-02-01T07:46:46.643Z,91.11
2023-02-01T07:47:46.638Z,91.22
2023-02-01T07:48:46.671Z,91.32
2023-02-01T07:49:46.672Z,91.22
2023-02-01T07:50:46.764Z,91.42
2023-02-01T07:51:46.606Z,91.53
2023-02-01T07:52:46.581Z,91.53
2023-02-01T07:53:46.586Z,91.32
2023-02-01T07:54:46.567Z,91.32
2023-02-01T07:55:46.517Z,91.42
2023-02-01T07:56:46.500Z,91.53
2023-02-01T07:57:46.498Z,91.53
2023-02-01T07:58:46.500Z,91.11
2023-02-01T07:59:46.466Z,91.32
2023-02-01T08:00:46.512Z,91.32
2023-02-01T08:01:46.445Z,91.32
2023-02-01T08:02:46.425Z,91.22
2023-02-01T08:03:46.485Z,91.22
2023-02-01T08:04:46.397Z,91.32
2023-02-01T08:05:46.407Z,91.42
2023-02-01T08:06:46.427Z,91.42
2023-02-01T08:07:46.406Z,91.53
2023-02-01T08:08:46.371Z,91.42
2023-02-01T08:09:46.369Z,91.53
2023-02-01T08:10:46.356Z,91.53
2023-02-01T08:11:46.364Z,91.53
2023-02-01T08:12:46.343Z,91.32
2023-02-01T08:13:46.320Z,91.42
2023-02-01T08:14:46.274Z,91.42
2023-02-01T08:15:46.290Z,91.22
2023-02-01T08:16:46.299Z,91.22
2023-02-01T08:17:47.876Z,91.32
2023-02-01T08:18:46.215Z,91.42
2023-02-01T08:19:46.240Z,91.22
2023-02-01T08:20:46.191Z,91.32
2023-02-01T08:21:46.227Z,91.22
2023-02-01T08:22:46.169Z,91.32
2023-02-01T08:23:46.197Z,91.32
2023-02-01T08:24:46.137Z,91.22
2023-02-01T08:25:46.138Z,90.91
2023-02-01T08:26:46.170Z,91.01
2023-02-01T08:27:46.123Z,91.11
2023-02-01T08:28:46.096Z,91.22
2023-02-01T08:29:46.114Z,91.22
2023-02-01T08:30:46.086Z,91.11
2023-02-01T08:31:46.481Z,91.32
2023-02-01T08:32:46.042Z,91.32
2023-02-01T08:33:46.039Z,91.32
2023-02-01T08:34:46.037Z,91.32
2023-02-01T08:35:46.039Z,91.32
2023-02-01T08:36:45.987Z,91.22
2023-02-01T08:37:46.035Z,91.32
2023-02-01T08:38:45.964Z,91.42
2023-02-01T08:39:47.723Z,91.32
2023-02-01T08:40:45.965Z,91.22
2023-02-01T08:41:45.954Z,91.07
2023-02-01T08:42:45.933Z,91.07
2023-02-01T08:43:45.933Z,91.17
2023-02-01T08:44:45.914Z,90.97
2023-02-01T08:45:46.011Z,90.77
2023-02-01T08:46:45.876Z,90.87
2023-02-01T08:47:45.857Z,90.87
2023-02-01T08:48:45.833Z,91.07
2023-02-01T08:49:45.865Z,91.07
2023-02-01T08:50:45.844Z,90.56
2023-02-01T08:51:45.805Z,90.45
2023-02-01T08:52:45.825Z,90.45
2023-02-01T08:53:45.828Z,90.45
2023-02-01T08:54:45.751Z,90.56
2023-02-01T08:55:45.781Z,90.66
2023-02-01T08:56:45.775Z,90.56
2023-02-01T08:57:45.750Z,90.45
2023-02-01T08:58:45.744Z,90.25
2023-02-01T08:59:45.692Z,90.25
2023-02-01T09:00:45.672Z,90.25
2023-02-01T09:01:45.734Z,90.25
2023-02-01T09:02:45.669Z,90.25
2023-02-01T09:03:45.744Z,90.25
2023-02-01T09:04:45.649Z,90.25
2023-02-01T09:05:49.773Z,90.10
2023-02-01T09:06:45.628Z,90.35
2023-02-01T09:07:45.635Z,90.31
2023-02-01T09:08:45.621Z,89.89
2023-02-01T09:09:45.603Z,90.00
2023-02-01T09:10:45.552Z,90.00
2023-02-01T09:11:45.598Z,90.10
2023-02-01T09:12:45.548Z,90.10
2023-02-01T09:13:45.578Z,90.00
2023-02-01T09:14:45.570Z,89.79
2023-02-01T09:15:45.578Z,89.79
2023-02-01T09:16:45.498Z,89.89
2023-02-01T09:17:45.540Z,89.89
2023-02-01T09:18:55.862Z,89.59
2023-02-01T09:19:46.459Z,89.59
2023-02-01T09:20:45.531Z,89.79
2023-02-01T09:21:45.444Z,89.89
2023-02-01T09:22:45.399Z,89.89
2023-02-01T09:23:45.426Z,89.89
2023-02-01T09:24:45.506Z,89.69
2023-02-01T09:25:45.399Z,89.89
2023-02-01T09:26:46.206Z,90.00
2023-02-01T09:27:45.365Z,90.10
2023-02-01T09:28:45.316Z,90.00
2023-02-01T09:29:45.356Z,89.89
2023-02-01T09:30:45.491Z,89.79
2023-02-01T09:31:57.301Z,89.79
2023-02-01T09:32:46.293Z,89.89
2023-02-01T09:33:45.293Z,90.10
2023-02-01T09:34:45.237Z,90.20
2023-02-01T09:35:45.284Z,90.00
2023-02-01T09:36:45.216Z,90.20
2023-02-01T09:37:45.216Z,90.10
2023-02-01T09:38:52.824Z,89.89
2023-02-01T09:39:46.230Z,90.10
2023-02-01T09:40:45.254Z,90.00
2023-02-01T09:41:45.173Z,90.00
2023-02-01T09:42:45.163Z,89.79
2023-02-01T09:43:45.163Z,89.69
2023-02-01T09:44:45.129Z,89.59
2023-02-01T09:45:45.114Z,89.59
2023-02-01T09:46:45.129Z,89.54
2023-02-01T09:47:45.095Z,89.44
2023-02-01T09:48:45.088Z,89.34
2023-02-01T09:49:45.098Z,89.34
2023-02-01T09:50:45.036Z,89.34
2023-02-01T09:51:45.070Z,89.34
2023-02-01T09:52:45.058Z,89.54
2023-02-01T09:53:45.022Z,89.54
2023-02-01T09:54:45.015Z,89.13
2023-02-01T09:55:45.028Z,89.13
2023-02-01T09:56:44.967Z,89.44
2023-02-01T09:57:44.994Z,89.34
2023-02-01T09:58:44.931Z,89.44
2023-02-01T09:59:44.967Z,89.34
2023-02-01T10:00:44.948Z,89.44
2023-02-01T10:01:44.953Z,89.23
2023-02-01T10:02:44.907Z,89.13
2023-02-01T10:03:44.989Z,88.82
2023-02-01T10:04:44.897Z,88.92
2023-02-01T10:05:44.898Z,89.03
2023-02-01T10:06:44.864Z,88.82
2023-02-01T10:07:44.855Z,88.71
2023-02-01T10:08:44.855Z,88.82
2023-02-01T10:09:44.810Z,88.92
2023-02-01T10:10:44.809Z,88.71
2023-02-01T10:11:44.818Z,88.82
2023-02-01T10:12:44.757Z,88.89
2023-02-01T10:13:44.771Z,88.57
2023-02-01T10:14:44.732Z,88.26
2023-02-01T10:15:44.790Z,88.47
2023-02-01T10:16:44.869Z,88.57
2023-02-01T10:17:44.733Z,88.26
2023-02-01T10:18:44.709Z,88.26
2023-02-01T10:19:44.691Z,88.16
2023-02-01T10:20:44.659Z,88.16
2023-02-01T10:21:44.676Z,87.85
2023-02-01T10:23:45.647Z,87.44
2023-02-01T10:24:44.605Z,87.50
2023-02-01T10:25:44.634Z,87.34
2023-02-01T10:26:44.696Z,87.60
2023-02-01T10:27:44.586Z,87.71
2023-02-01T10:29:39.542Z,87.50
2023-02-01T10:30:39.578Z,87.60
2023-02-01T10:31:39.567Z,87.29
2023-02-01T10:32:39.487Z,87.40
2023-02-01T10:33:39.519Z,87.19
2023-02-01T10:34:39.501Z,87.40
2023-02-01T10:35:39.463Z,87.50
2023-02-01T10:36:39.455Z,87.15
2023-02-01T10:37:39.429Z,86.94
2023-02-01T10:38:39.438Z,87.05
2023-02-01T10:39:39.499Z,87.05
2023-02-01T10:40:39.504Z,86.70
2023-02-01T10:41:39.583Z,86.49
2023-02-01T10:42:39.365Z,86.08
2023-02-01T10:43:39.342Z,85.67
2023-02-01T10:44:39.357Z,85.46
2023-02-01T10:45:39.359Z,85.36
2023-02-01T10:46:39.400Z,85.15
2023-02-01T10:47:39.307Z,85.05
2023-02-01T10:48:39.301Z,85.42
2023-02-01T10:49:39.685Z,84.91
2023-02-01T10:50:39.301Z,85.01
2023-02-01T10:51:39.232Z,85.11
2023-02-01T10:52:39.251Z,84.91
2023-02-01T10:53:39.208Z,84.59
2023-02-01T10:54:39.298Z,84.08
2023-02-01T10:55:41.022Z,84.29
2023-02-01T10:56:39.340Z,84.39
2023-02-01T10:57:39.180Z,84.70
2023-02-01T10:58:39.197Z,84.49
2023-02-01T10:59:39.131Z,84.70
2023-02-01T11:00:39.202Z,84.70
2023-02-01T11:01:39.178Z,85.22
2023-02-01T11:02:39.161Z,85.31
2023-02-01T11:03:39.086Z,84.70
2023-02-01T11:04:39.070Z,84.91
2023-02-01T11:05:39.105Z,84.70
2023-02-01T11:06:39.124Z,85.11
2023-02-01T11:07:39.089Z,85.11
2023-02-01T11:08:39.045Z,84.80
2023-02-01T11:09:39.030Z,84.29
2023-02-01T11:10:39.021Z,84.22
2023-02-01T11:11:38.993Z,84.64
2023-02-01T11:12:39.019Z,84.64
2023-02-01T11:13:38.982Z,84.53
2023-02-01T11:14:38.974Z,84.43
2023-02-01T11:15:38.971Z,84.53
2023-02-01T11:16:38.973Z,84.94
2023-02-01T11:17:38.967Z,85.05
2023-02-01T11:18:38.923Z,84.84
2023-02-01T11:19:38.886Z,84.84
2023-02-01T11:20:38.874Z,85.15
2023-02-01T11:21:39.749Z,84.94
2023-02-01T11:22:38.995Z,84.94
2023-02-01T11:23:38.850Z,85.15
2023-02-01T11:24:38.852Z,85.36
2023-02-01T11:25:38.814Z,85.22
2023-02-01T11:26:38.835Z,85.11
2023-02-01T11:27:49.432Z,84.49
2023-02-01T11:28:40.552Z,84.49
2023-02-01T11:29:38.784Z,84.70
2023-02-01T11:30:38.775Z,85.11
2023-02-01T11:31:38.769Z,85.01
2023-02-01T11:32:38.791Z,84.49
2023-02-01T11:33:38.685Z,84.59
2023-02-01T11:34:38.712Z,84.49
2023-02-01T11:35:38.712Z,84.29
2023-02-01T11:36:38.664Z,84.19
2023-02-01T11:37:38.712Z,84.70
2023-02-01T11:38:38.655Z,85.01
2023-02-01T11:39:38.616Z,84.70
2023-02-01T11:40:38.642Z,84.19
2023-02-01T11:41:38.651Z,83.94
2023-02-01T11:42:38.664Z,83.87
2023-02-01T11:43:38.559Z,83.98
2023-02-01T11:44:38.578Z,84.29
2023-02-01T11:45:38.569Z,83.87
2023-02-01T11:46:38.618Z,83.98
2023-02-01T11:47:38.522Z,83.98
2023-02-01T11:48:38.510Z,84.19
2023-02-01T11:49:38.482Z,83.98
2023-02-01T11:50:38.516Z,84.08
2023-02-01T11:51:38.516Z,84.08
2023-02-01T11:52:38.553Z,83.67
2023-02-01T11:53:38.549Z,83.67
2023-02-01T11:54:38.467Z,83.47
2023-02-01T11:55:38.444Z,83.98
2023-02-01T11:56:38.464Z,84.19
2023-02-01T11:57:38.376Z,83.98
2023-02-01T11:58:39.278Z,84.08
2023-02-01T11:59:40.995Z,84.08
2023-02-01T12:00:38.410Z,83.98
2023-02-01T12:01:38.375Z,83.67
2023-02-01T12:02:38.392Z,83.77
2023-02-01T12:03:38.443Z,84.19
2023-02-01T12:04:38.357Z,84.08
2023-02-01T12:05:38.285Z,84.19
2023-02-01T12:06:38.305Z,83.98
2023-02-01T12:07:38.258Z,83.98
2023-02-01T12:08:38.288Z,84.08
2023-02-01T12:09:38.514Z,84.19
2023-02-01T12:10:38.243Z,84.29
2023-02-01T12:11:38.216Z,84.19
2023-02-01T12:12:38.186Z,84.29
2023-02-01T12:13:38.204Z,84.49
2023-02-01T12:14:38.196Z,84.59
2023-02-01T12:15:38.162Z,84.80
2023-02-01T12:16:38.184Z,84.39
2023-02-01T12:17:38.160Z,84.08
2023-02-01T12:18:38.140Z,84.39
2023-02-01T12:19:38.124Z,84.29
2023-02-01T12:20:38.100Z,83.98
2023-02-01T12:21:38.093Z,84.05
2023-02-01T12:22:38.171Z,84.05
2023-02-01T12:23:38.143Z,83.73
2023-02-01T12:24:38.081Z,83.73
2023-02-01T12:25:38.079Z,83.84
2023-02-01T12:26:38.073Z,83.73
2023-02-01T12:27:38.034Z,83.63
2023-02-01T12:28:38.011Z,83.63
2023-02-01T12:29:38.021Z,84.25
2023-02-01T12:30:37.999Z,83.84
2023-02-01T12:31:38.007Z,84.14
2023-02-01T12:32:37.962Z,84.25
2023-02-01T12:33:37.994Z,83.94
2023-02-01T12:34:37.934Z,84.25
2023-02-01T12:35:37.898Z,84.45
2023-02-01T12:36:37.943Z,84.14
2023-02-01T12:37:37.912Z,83.94
2023-02-01T12:38:37.925Z,84.14
2023-02-01T12:39:37.852Z,83.94
2023-02-01T12:40:37.866Z,83.42
2023-02-01T12:41:37.845Z,83.63
2023-02-01T12:42:38.744Z,83.53
2023-02-01T12:43:37.778Z,83.73
2023-02-01T12:44:37.790Z,83.73
2023-02-01T12:45:37.847Z,84.14
2023-02-01T12:46:37.785Z,84.05
2023-02-01T12:47:37.750Z,83.84
2023-02-01T12:48:37.766Z,83.84
2023-02-01T12:49:37.744Z,84.05
2023-02-01T12:50:37.940Z,84.19
2023-02-01T12:51:37.692Z,84.49
2023-02-01T12:52:37.716Z,84.29
2023-02-01T12:53:37.670Z,84.08
2023-02-01T12:54:37.678Z,84.29